createdAt,value
2018-08-13T01:29:22.855Z,18.37
2018-08-13T01:29:23.429Z,18.46
2018-08-13T01:29:24.029Z,18.50
2018-08-13T01:29:24.628Z,18.52
2018-08-13T01:29:25.228Z,18.44
2018-08-13T01:29:25.827Z,18.44
2018-08-13T01:29:26.429Z,18.50
2018-08-13T01:29:27.028Z,18.44
2018-08-13T01:30:21.486Z,18.39
2018-08-13T01:30:22.057Z,18.43
2018-08-13T01:30:22.657Z,18.43
2018-08-13T01:30:23.258Z,18.46
2018-08-13T01:30:23.858Z,18.47
2018-08-13T01:30:24.456Z,18.47
2018-08-13T01:30:25.059Z,18.43
2018-08-13T01:30:25.655Z,18.50
2018-08-13T01:31:19.126Z,18.37
2018-08-13T01:31:19.696Z,18.49
2018-08-13T01:31:20.296Z,18.43
2018-08-13T01:31:20.895Z,18.46
2018-08-13T01:31:21.499Z,18.49
2018-08-13T01:31:22.095Z,18.47
2018-08-13T01:31:22.695Z,18.47
2018-08-13T01:31:23.295Z,18.39
2018-08-13T01:32:16.766Z,18.40
2018-08-13T01:32:17.340Z,18.39
2018-08-13T01:32:17.933Z,18.44
2018-08-13T01:32:18.533Z,18.39
2018-08-13T01:32:19.133Z,18.44
2018-08-13T01:32:19.733Z,18.42
2018-08-13T01:32:20.333Z,18.42
2018-08-13T01:32:20.931Z,18.39
2018-08-13T01:33:14.403Z,18.40
2018-08-13T01:33:14.976Z,18.40
2018-08-13T01:33:15.574Z,18.43
2018-08-13T01:33:16.176Z,18.37
2018-08-13T01:33:16.776Z,18.37
2018-08-13T01:33:17.376Z,18.39
2018-08-13T01:33:17.975Z,18.40
2018-08-13T01:33:18.574Z,18.40
2018-08-13T01:34:13.033Z,18.40
2018-08-13T01:34:13.607Z,18.39
2018-08-13T01:34:14.208Z,18.39
2018-08-13T01:34:14.808Z,18.42
2018-08-13T01:34:15.408Z,18.40
2018-08-13T01:34:16.007Z,18.39
2018-08-13T01:34:16.612Z,18.40
2018-08-13T01:34:17.208Z,18.40
2018-08-13T01:35:11.666Z,18.40
2018-08-13T01:35:12.242Z,18.46
2018-08-13T01:35:12.840Z,18.34
2018-08-13T01:35:13.442Z,18.40
2018-08-13T01:35:14.044Z,18.43
2018-08-13T01:35:14.640Z,18.43
2018-08-13T01:35:15.242Z,18.44
2018-08-13T01:35:15.840Z,18.37
2018-08-13T01:36:09.313Z,18.33
2018-08-13T01:36:09.887Z,18.42
2018-08-13T01:36:10.485Z,18.44
2018-08-13T01:36:11.086Z,18.50
2018-08-13T01:36:11.685Z,18.39
2018-08-13T01:36:12.285Z,18.47
2018-08-13T01:36:12.887Z,18.40
2018-08-13T01:36:13.489Z,18.47
2018-08-13T01:37:07.945Z,18.46
2018-08-13T01:37:08.519Z,18.47
2018-08-13T01:37:09.119Z,18.46
2018-08-13T01:37:09.718Z,18.47
2018-08-13T01:37:10.322Z,18.37
2018-08-13T01:37:10.918Z,18.47
2018-08-13T01:37:11.518Z,18.50
2018-08-13T01:37:12.118Z,18.47
2018-08-13T01:38:06.580Z,18.37
2018-08-13T01:38:07.152Z,18.43
2018-08-13T01:38:07.753Z,18.44
2018-08-13T01:38:08.353Z,18.43
2018-08-13T01:38:08.952Z,18.47
2018-08-13T01:38:09.552Z,18.43
2018-08-13T01:38:10.152Z,18.43
2018-08-13T01:38:10.753Z,18.44
2018-08-13T01:39:04.222Z,18.50
2018-08-13T01:39:04.795Z,18.42
2018-08-13T01:39:05.396Z,18.47
2018-08-13T01:39:05.993Z,18.47
2018-08-13T01:39:06.594Z,18.49
2018-08-13T01:39:07.196Z,18.54
2018-08-13T01:39:07.795Z,18.44
2018-08-13T01:39:08.395Z,18.46
2018-08-13T01:40:02.857Z,18.47
2018-08-13T01:40:03.431Z,18.46
2018-08-13T01:40:04.030Z,18.47
2018-08-13T01:40:04.629Z,18.46
2018-08-13T01:40:05.229Z,18.46
2018-08-13T01:40:05.830Z,18.43
2018-08-13T01:40:06.432Z,18.49
2018-08-13T01:40:07.030Z,18.46
2018-08-13T01:41:01.493Z,18.40
2018-08-13T01:41:02.065Z,18.43
2018-08-13T01:41:02.664Z,18.47
2018-08-13T01:41:03.264Z,18.46
2018-08-13T01:41:03.864Z,18.46
2018-08-13T01:41:04.464Z,18.47
2018-08-13T01:41:05.063Z,18.47
2018-08-13T01:41:05.662Z,18.47
2018-08-13T01:41:59.135Z,18.44
2018-08-13T01:41:59.708Z,18.49
2018-08-13T01:42:00.307Z,18.57
2018-08-13T01:42:00.908Z,18.54
2018-08-13T01:42:01.507Z,18.50
2018-08-13T01:42:02.110Z,18.57
2018-08-13T01:42:02.706Z,18.57
2018-08-13T01:42:03.306Z,18.50
2018-08-13T01:42:57.771Z,18.49
2018-08-13T01:42:58.344Z,18.46
2018-08-13T01:42:58.943Z,18.52
2018-08-13T01:42:59.541Z,18.57
2018-08-13T01:43:00.147Z,18.62
2018-08-13T01:43:00.744Z,18.54
2018-08-13T01:43:01.343Z,18.57
2018-08-13T01:43:01.941Z,18.59
2018-08-13T01:43:56.404Z,18.55
2018-08-13T01:43:56.983Z,18.58
2018-08-13T01:43:57.578Z,18.58
2018-08-13T01:43:58.178Z,18.55
2018-08-13T01:43:58.780Z,18.61
2018-08-13T01:43:59.379Z,18.59
2018-08-13T01:43:59.977Z,18.50
2018-08-13T01:44:00.579Z,18.52
2018-08-13T01:44:54.050Z,18.54
2018-08-13T01:44:54.622Z,18.59
2018-08-13T01:44:55.223Z,18.57
2018-08-13T01:44:55.822Z,18.58
2018-08-13T01:44:56.421Z,18.58
2018-08-13T01:44:57.022Z,18.50
2018-08-13T01:44:57.625Z,18.58
2018-08-13T01:44:58.221Z,18.54
2018-08-13T01:45:52.687Z,18.55
2018-08-13T01:45:53.259Z,18.52
2018-08-13T01:45:53.859Z,18.58
2018-08-13T01:45:54.457Z,18.58
2018-08-13T01:45:55.058Z,18.58
2018-08-13T01:45:55.657Z,18.52
2018-08-13T01:45:56.259Z,18.57
2018-08-13T01:45:56.857Z,18.59
2018-08-13T01:46:50.330Z,18.58
2018-08-13T01:46:50.901Z,18.61
2018-08-13T01:46:51.501Z,18.62
2018-08-13T01:46:52.102Z,18.61
2018-08-13T01:46:52.699Z,18.65
2018-08-13T01:46:53.300Z,18.59
2018-08-13T01:46:53.902Z,18.57
2018-08-13T01:46:54.501Z,18.64
2018-08-13T01:47:47.970Z,18.61
2018-08-13T01:47:48.544Z,18.59
2018-08-13T01:47:49.146Z,18.59
2018-08-13T01:47:49.745Z,18.61
2018-08-13T01:47:50.359Z,18.61
2018-08-13T01:47:50.947Z,18.57
2018-08-13T01:47:51.544Z,18.58
2018-08-13T01:47:52.144Z,18.59
2018-08-13T01:48:46.610Z,18.72
2018-08-13T01:48:47.182Z,18.68
2018-08-13T01:48:47.780Z,18.67
2018-08-13T01:48:48.383Z,18.67
2018-08-13T01:48:48.980Z,18.59
2018-08-13T01:48:49.579Z,18.64
2018-08-13T01:48:50.180Z,18.65
2018-08-13T01:48:50.780Z,18.64
2018-08-13T01:49:44.252Z,18.65
2018-08-13T01:49:44.825Z,18.68
2018-08-13T01:49:45.425Z,18.65
2018-08-13T01:49:46.026Z,18.64
2018-08-13T01:49:46.626Z,18.64
2018-08-13T01:49:47.225Z,18.61
2018-08-13T01:49:47.825Z,18.65
2018-08-13T01:49:48.425Z,18.67
2018-08-13T01:50:42.892Z,18.65
2018-08-13T01:50:43.465Z,18.68
2018-08-13T01:50:44.062Z,18.65
2018-08-13T01:50:44.661Z,18.73
2018-08-13T01:50:45.260Z,18.67
2018-08-13T01:50:45.861Z,18.61
2018-08-13T01:50:46.461Z,18.67
2018-08-13T01:50:47.061Z,18.65
2018-08-13T01:51:41.526Z,18.62
2018-08-13T01:51:42.099Z,18.65
2018-08-13T01:51:42.698Z,18.62
2018-08-13T01:51:43.300Z,18.59
2018-08-13T01:51:43.897Z,18.61
2018-08-13T01:51:44.498Z,18.68
2018-08-13T01:51:45.098Z,18.68
2018-08-13T01:51:45.698Z,18.73
2018-08-13T01:52:40.161Z,18.64
2018-08-13T01:52:40.737Z,18.72
2018-08-13T01:52:41.334Z,18.64
2018-08-13T01:52:41.933Z,18.73
2018-08-13T01:52:42.545Z,18.74
2018-08-13T01:52:43.135Z,18.70
2018-08-13T01:52:43.733Z,18.73
2018-08-13T01:52:44.332Z,18.64
2018-08-13T01:53:37.808Z,18.67
2018-08-13T01:53:38.379Z,18.74
2018-08-13T01:53:38.980Z,18.74
2018-08-13T01:53:39.579Z,18.67
2018-08-13T01:53:40.179Z,18.67
2018-08-13T01:53:40.784Z,18.68
2018-08-13T01:53:41.379Z,18.73
2018-08-13T01:53:41.981Z,18.67
2018-08-13T01:54:35.456Z,18.76
2018-08-13T01:54:36.028Z,18.64
2018-08-13T01:54:36.627Z,18.76
2018-08-13T01:54:37.231Z,18.65
2018-08-13T01:54:37.827Z,18.79
2018-08-13T01:54:38.432Z,18.76
2018-08-13T01:54:39.027Z,18.76
2018-08-13T01:54:39.629Z,18.73
2018-08-13T01:55:34.091Z,18.76
2018-08-13T01:55:34.665Z,18.80
2018-08-13T01:55:35.265Z,18.77
2018-08-13T01:55:35.864Z,18.76
2018-08-13T01:55:36.464Z,18.76
2018-08-13T01:55:37.065Z,18.79
2018-08-13T01:55:37.664Z,18.73
2018-08-13T01:55:38.263Z,18.73
2018-08-13T01:56:31.737Z,18.76
2018-08-13T01:56:32.311Z,18.82
2018-08-13T01:56:32.908Z,18.79
2018-08-13T01:56:33.508Z,18.76
2018-08-13T01:56:34.107Z,18.80
2018-08-13T01:56:34.708Z,18.76
2018-08-13T01:56:35.354Z,18.77
2018-08-13T01:56:35.907Z,18.76
2018-08-13T01:57:30.372Z,18.80
2018-08-13T01:57:30.945Z,18.83
2018-08-13T01:57:31.545Z,18.77
2018-08-13T01:57:32.145Z,18.77
2018-08-13T01:57:32.745Z,18.79
2018-08-13T01:57:33.345Z,18.79
2018-08-13T01:57:33.945Z,18.79
2018-08-13T01:57:34.545Z,18.79
2018-08-13T01:58:28.060Z,18.84
2018-08-13T01:58:28.597Z,18.80
2018-08-13T01:58:29.234Z,18.80
2018-08-13T01:58:29.830Z,18.79
2018-08-13T01:58:30.391Z,18.79
2018-08-13T01:58:30.991Z,18.79
2018-08-13T01:58:31.594Z,18.80
2018-08-13T01:58:32.189Z,18.77
2018-08-13T01:59:26.157Z,18.80
2018-08-13T01:59:26.729Z,18.80
2018-08-13T01:59:27.328Z,18.86
2018-08-13T01:59:27.929Z,18.77
2018-08-13T01:59:28.528Z,18.86
2018-08-13T01:59:29.129Z,18.84
2018-08-13T01:59:29.730Z,18.82
2018-08-13T02:00:44.210Z,18.84
2018-08-13T02:00:44.768Z,18.86
2018-08-13T02:00:45.370Z,18.86
2018-08-13T02:00:45.970Z,18.87
2018-08-13T02:00:46.569Z,18.91
2018-08-13T02:00:47.169Z,18.87
2018-08-13T02:00:47.771Z,18.73
2018-08-13T02:00:48.369Z,18.87
2018-08-13T02:01:42.852Z,18.86
2018-08-13T02:01:43.464Z,18.79
2018-08-13T02:01:44.092Z,18.84
2018-08-13T02:01:44.679Z,18.86
2018-08-13T02:01:45.377Z,18.86
2018-08-13T02:01:45.824Z,18.84
2018-08-13T02:01:46.462Z,18.92
2018-08-13T02:01:47.090Z,18.80
2018-08-13T02:02:40.477Z,18.79
2018-08-13T02:02:41.050Z,18.91
2018-08-13T02:02:41.652Z,18.84
2018-08-13T02:02:42.251Z,18.86
2018-08-13T02:02:42.851Z,18.77
2018-08-13T02:02:43.449Z,18.91
2018-08-13T02:02:44.049Z,18.91
2018-08-13T02:02:44.649Z,18.84
2018-08-13T02:03:39.115Z,18.77
2018-08-13T02:03:39.687Z,18.86
2018-08-13T02:03:40.287Z,18.91
2018-08-13T02:03:40.888Z,18.84
2018-08-13T02:03:41.487Z,18.90
2018-08-13T02:03:42.087Z,18.83
2018-08-13T02:03:42.687Z,18.90
2018-08-13T02:03:43.286Z,18.84
2018-08-13T02:04:37.752Z,18.87
2018-08-13T02:04:38.325Z,18.90
2018-08-13T02:04:38.923Z,18.84
2018-08-13T02:04:39.524Z,18.87
2018-08-13T02:04:40.123Z,18.86
2018-08-13T02:04:40.724Z,18.86
2018-08-13T02:04:41.327Z,18.87
2018-08-13T02:04:41.926Z,18.87
2018-08-13T02:05:36.388Z,18.91
2018-08-13T02:05:36.962Z,18.87
2018-08-13T02:05:37.561Z,18.87
2018-08-13T02:05:38.162Z,18.82
2018-08-13T02:05:38.761Z,18.90
2018-08-13T02:05:39.362Z,18.95
2018-08-13T02:05:39.960Z,18.91
2018-08-13T02:05:40.561Z,18.91
2018-08-13T02:06:35.030Z,18.90
2018-08-13T02:06:35.598Z,18.92
2018-08-13T02:06:36.199Z,18.92
2018-08-13T02:06:36.799Z,18.86
2018-08-13T02:06:37.399Z,18.87
2018-08-13T02:06:37.998Z,18.90
2018-08-13T02:06:38.599Z,18.94
2018-08-13T02:06:39.199Z,18.87
2018-08-13T02:07:33.666Z,18.86
2018-08-13T02:07:34.235Z,18.92
2018-08-13T02:07:34.838Z,18.91
2018-08-13T02:07:35.435Z,18.92
2018-08-13T02:07:36.038Z,18.87
2018-08-13T02:07:36.636Z,18.95
2018-08-13T02:07:37.237Z,18.87
2018-08-13T02:07:37.835Z,18.98
2018-08-13T02:08:31.311Z,18.94
2018-08-13T02:08:31.883Z,18.90
2018-08-13T02:08:32.482Z,18.95
2018-08-13T02:08:33.083Z,18.98
2018-08-13T02:08:33.683Z,18.87
2018-08-13T02:08:34.281Z,18.90
2018-08-13T02:08:34.883Z,18.98
2018-08-13T02:08:35.482Z,18.99
2018-08-13T02:09:29.949Z,18.90
2018-08-13T02:09:30.518Z,18.95
2018-08-13T02:09:31.120Z,18.95
2018-08-13T02:09:31.719Z,18.94
2018-08-13T02:09:32.317Z,18.87
2018-08-13T02:09:32.920Z,18.95
2018-08-13T02:09:33.519Z,18.97
2018-08-13T02:09:34.117Z,18.95
2018-08-13T02:10:28.584Z,18.87
2018-08-13T02:10:29.158Z,19.02
2018-08-13T02:10:29.755Z,18.98
2018-08-13T02:10:30.356Z,19.02
2018-08-13T02:10:30.956Z,18.97
2018-08-13T02:10:31.555Z,18.99
2018-08-13T02:10:32.154Z,18.95
2018-08-13T02:10:32.754Z,19.01
2018-08-13T02:11:27.219Z,18.87
2018-08-13T02:11:27.793Z,18.90
2018-08-13T02:11:28.393Z,18.91
2018-08-13T02:11:28.995Z,18.91
2018-08-13T02:11:29.593Z,18.99
2018-08-13T02:11:30.192Z,18.92
2018-08-13T02:11:30.793Z,18.98
2018-08-13T02:11:31.392Z,18.99
2018-08-13T02:12:25.858Z,18.92
2018-08-13T02:12:26.430Z,18.90
2018-08-13T02:12:27.032Z,18.90
2018-08-13T02:12:27.631Z,18.99
2018-08-13T02:12:28.231Z,18.99
2018-08-13T02:12:28.832Z,18.99
2018-08-13T02:12:29.430Z,18.92
2018-08-13T02:12:30.031Z,19.02
2018-08-13T02:13:24.496Z,19.01
2018-08-13T02:13:25.068Z,19.05
2018-08-13T02:13:25.669Z,19.01
2018-08-13T02:13:26.269Z,18.97
2018-08-13T02:13:26.869Z,19.05
2018-08-13T02:13:27.467Z,19.01
2018-08-13T02:13:28.068Z,18.98
2018-08-13T02:13:28.668Z,18.97
2018-08-13T02:14:23.133Z,18.97
2018-08-13T02:14:23.705Z,18.97
2018-08-13T02:14:24.310Z,18.95
2018-08-13T02:14:24.907Z,19.01
2018-08-13T02:14:25.508Z,18.98
2018-08-13T02:14:26.106Z,19.05
2018-08-13T02:14:26.705Z,19.01
2018-08-13T02:14:27.308Z,18.97
2018-08-13T02:15:21.770Z,18.91
2018-08-13T02:15:22.344Z,19.05
2018-08-13T02:15:22.943Z,19.06
2018-08-13T02:15:23.542Z,19.02
2018-08-13T02:15:24.143Z,19.01
2018-08-13T02:15:24.742Z,18.98
2018-08-13T02:15:25.342Z,19.05
2018-08-13T02:15:25.943Z,18.97
2018-08-13T02:16:19.417Z,18.94
2018-08-13T02:16:19.991Z,18.95
2018-08-13T02:16:20.589Z,19.05
2018-08-13T02:16:21.189Z,19.02
2018-08-13T02:16:21.789Z,19.05
2018-08-13T02:16:22.390Z,19.05
2018-08-13T02:16:22.989Z,18.98
2018-08-13T02:16:23.591Z,19.02
2018-08-13T02:17:18.055Z,18.97
2018-08-13T02:17:18.626Z,18.98
2018-08-13T02:17:19.227Z,19.05
2018-08-13T02:17:19.827Z,18.98
2018-08-13T02:17:20.427Z,19.02
2018-08-13T02:17:21.027Z,18.99
2018-08-13T02:17:21.627Z,19.01
2018-08-13T02:17:22.227Z,18.98
2018-08-13T02:18:15.699Z,19.02
2018-08-13T02:18:16.276Z,19.05
2018-08-13T02:18:16.872Z,19.13
2018-08-13T02:18:17.471Z,19.01
2018-08-13T02:18:18.072Z,19.11
2018-08-13T02:18:18.671Z,18.99
2018-08-13T02:18:19.271Z,19.05
2018-08-13T02:18:19.871Z,19.01
2018-08-13T02:19:14.336Z,19.01
2018-08-13T02:19:14.913Z,19.05
2018-08-13T02:19:15.508Z,18.97
2018-08-13T02:19:16.109Z,19.05
2018-08-13T02:19:16.708Z,19.02
2018-08-13T02:19:17.309Z,19.02
2018-08-13T02:19:17.908Z,19.05
2018-08-13T02:19:18.510Z,19.13
2018-08-13T02:20:12.975Z,19.05
2018-08-13T02:20:13.547Z,19.01
2018-08-13T02:20:14.147Z,19.13
2018-08-13T02:20:14.746Z,18.98
2018-08-13T02:20:15.348Z,18.94
2018-08-13T02:20:15.947Z,18.99
2018-08-13T02:20:16.546Z,19.06
2018-08-13T02:20:17.147Z,19.05
2018-08-13T02:21:11.611Z,19.01
2018-08-13T02:21:12.186Z,18.99
2018-08-13T02:21:12.786Z,19.02
2018-08-13T02:21:13.431Z,19.11
2018-08-13T02:21:13.984Z,18.99
2018-08-13T02:21:14.585Z,19.10
2018-08-13T02:21:15.185Z,19.10
2018-08-13T02:21:15.785Z,19.02
2018-08-13T02:22:09.261Z,19.01
2018-08-13T02:22:09.834Z,19.06
2018-08-13T02:22:10.430Z,19.10
2018-08-13T02:22:11.031Z,19.06
2018-08-13T02:22:11.634Z,19.08
2018-08-13T02:22:12.250Z,19.14
2018-08-13T02:22:12.831Z,19.10
2018-08-13T02:22:13.430Z,19.06
2018-08-13T02:23:06.904Z,19.01
2018-08-13T02:23:07.477Z,19.14
2018-08-13T02:23:08.077Z,19.06
2018-08-13T02:23:08.677Z,19.10
2018-08-13T02:23:09.275Z,19.11
2018-08-13T02:23:09.875Z,19.05
2018-08-13T02:23:10.476Z,19.11
2018-08-13T02:23:11.075Z,19.10
2018-08-13T02:24:05.543Z,19.05
2018-08-13T02:24:06.116Z,19.06
2018-08-13T02:24:06.717Z,19.06
2018-08-13T02:24:07.319Z,19.11
2018-08-13T02:24:07.917Z,19.13
2018-08-13T02:24:08.516Z,19.13
2018-08-13T02:24:09.116Z,19.06
2018-08-13T02:24:09.716Z,19.06
2018-08-13T02:25:03.189Z,19.15
2018-08-13T02:25:03.765Z,19.15
2018-08-13T02:25:04.365Z,19.13
2018-08-13T02:25:04.962Z,19.06
2018-08-13T02:25:05.563Z,19.11
2018-08-13T02:25:06.163Z,19.21
2018-08-13T02:25:06.763Z,19.11
2018-08-13T02:25:07.363Z,19.15
2018-08-13T02:26:00.836Z,19.14
2018-08-13T02:26:01.410Z,19.17
2018-08-13T02:26:02.010Z,19.15
2018-08-13T02:26:02.610Z,19.15
2018-08-13T02:26:03.209Z,19.13
2018-08-13T02:26:03.809Z,19.18
2018-08-13T02:26:04.413Z,19.13
2018-08-13T02:26:05.009Z,19.15
2018-08-13T02:26:58.484Z,19.13
2018-08-13T02:26:59.056Z,19.13
2018-08-13T02:26:59.657Z,19.14
2018-08-13T02:27:00.255Z,19.24
2018-08-13T02:27:00.855Z,19.14
2018-08-13T02:27:01.457Z,19.14
2018-08-13T02:27:02.055Z,19.21
2018-08-13T02:27:02.656Z,19.14
2018-08-13T02:27:56.129Z,19.14
2018-08-13T02:27:56.702Z,19.24
2018-08-13T02:27:57.302Z,19.15
2018-08-13T02:27:57.901Z,19.15
2018-08-13T02:27:58.502Z,19.11
2018-08-13T02:27:59.102Z,19.15
2018-08-13T02:27:59.702Z,19.11
2018-08-13T02:28:00.307Z,19.10
2018-08-13T02:28:53.775Z,19.11
2018-08-13T02:28:54.351Z,19.11
2018-08-13T02:28:54.950Z,19.18
2018-08-13T02:28:55.548Z,19.14
2018-08-13T02:28:56.147Z,19.21
2018-08-13T02:28:56.749Z,19.17
2018-08-13T02:28:57.349Z,19.20
2018-08-13T02:28:57.950Z,19.28
2018-08-13T02:29:52.414Z,19.14
2018-08-13T02:29:52.986Z,19.14
2018-08-13T02:29:53.587Z,19.11
2018-08-13T02:29:54.187Z,19.17
2018-08-13T02:29:54.788Z,19.13
2018-08-13T02:29:55.390Z,19.13
2018-08-13T02:29:55.985Z,19.17
2018-08-13T02:29:56.586Z,19.14
2018-08-13T02:30:50.109Z,19.13
2018-08-13T02:30:50.634Z,19.17
2018-08-13T02:30:51.236Z,19.18
2018-08-13T02:30:51.832Z,19.20
2018-08-13T02:30:52.432Z,19.17
2018-08-13T02:30:53.034Z,19.21
2018-08-13T02:30:53.633Z,19.17
2018-08-13T02:30:54.232Z,19.11
2018-08-13T02:31:47.708Z,19.14
2018-08-13T02:31:48.281Z,19.20
2018-08-13T02:31:48.879Z,19.29
2018-08-13T02:31:49.479Z,19.13
2018-08-13T02:31:50.081Z,19.15
2018-08-13T02:31:50.680Z,19.21
2018-08-13T02:31:51.278Z,19.17
2018-08-13T02:31:51.879Z,19.15
2018-08-13T02:32:45.356Z,19.15
2018-08-13T02:32:45.925Z,19.15
2018-08-13T02:32:46.529Z,19.13
2018-08-13T02:32:47.129Z,19.17
2018-08-13T02:32:47.731Z,19.17
2018-08-13T02:32:48.328Z,19.13
2018-08-13T02:32:48.929Z,19.21
2018-08-13T02:32:49.525Z,19.17
2018-08-13T02:33:43.989Z,19.15
2018-08-13T02:33:44.564Z,19.15
2018-08-13T02:33:45.164Z,19.17
2018-08-13T02:33:45.763Z,19.18
2018-08-13T02:33:46.364Z,19.11
2018-08-13T02:33:46.963Z,19.21
2018-08-13T02:33:47.569Z,19.15
2018-08-13T02:33:48.169Z,19.17
2018-08-13T02:34:41.637Z,19.21
2018-08-13T02:34:42.211Z,19.20
2018-08-13T02:34:42.810Z,19.15
2018-08-13T02:34:43.409Z,19.24
2018-08-13T02:34:44.011Z,19.20
2018-08-13T02:34:44.611Z,19.25
2018-08-13T02:34:45.210Z,19.15
2018-08-13T02:34:45.810Z,19.25
2018-08-13T02:35:39.295Z,19.14
2018-08-13T02:35:39.856Z,19.17
2018-08-13T02:35:40.456Z,19.17
2018-08-13T02:35:41.056Z,19.25
2018-08-13T02:35:41.654Z,19.24
2018-08-13T02:35:42.255Z,19.17
2018-08-13T02:35:42.857Z,19.25
2018-08-13T02:35:43.457Z,19.25
2018-08-13T02:36:37.919Z,19.17
2018-08-13T02:36:38.493Z,19.20
2018-08-13T02:36:39.091Z,19.24
2018-08-13T02:36:39.694Z,19.21
2018-08-13T02:36:40.293Z,19.28
2018-08-13T02:36:40.895Z,19.24
2018-08-13T02:36:41.495Z,19.17
2018-08-13T02:36:42.097Z,19.25
2018-08-13T02:37:35.566Z,19.24
2018-08-13T02:37:36.140Z,19.29
2018-08-13T02:37:36.740Z,19.21
2018-08-13T02:37:37.339Z,19.25
2018-08-13T02:37:37.940Z,19.18
2018-08-13T02:37:38.538Z,19.29
2018-08-13T02:37:39.139Z,19.23
2018-08-13T02:37:39.743Z,19.28
2018-08-13T02:38:33.213Z,19.28
2018-08-13T02:38:33.786Z,19.24
2018-08-13T02:38:34.386Z,19.29
2018-08-13T02:38:34.987Z,19.31
2018-08-13T02:38:35.585Z,19.25
2018-08-13T02:38:36.185Z,19.23
2018-08-13T02:38:36.785Z,19.32
2018-08-13T02:38:37.387Z,19.24
2018-08-13T02:39:31.851Z,19.25
2018-08-13T02:39:32.424Z,19.29
2018-08-13T02:39:33.024Z,19.21
2018-08-13T02:39:33.625Z,19.21
2018-08-13T02:39:34.227Z,19.25
2018-08-13T02:39:34.823Z,19.25
2018-08-13T02:39:35.423Z,19.28
2018-08-13T02:39:36.024Z,19.28
2018-08-13T02:40:30.488Z,19.23
2018-08-13T02:40:31.061Z,19.25
2018-08-13T02:40:31.663Z,19.23
2018-08-13T02:40:32.262Z,19.24
2018-08-13T02:40:32.862Z,19.25
2018-08-13T02:40:33.462Z,19.31
2018-08-13T02:40:34.062Z,19.31
2018-08-13T02:40:34.660Z,19.24
2018-08-13T02:41:28.140Z,19.29
2018-08-13T02:41:28.708Z,19.21
2018-08-13T02:41:29.307Z,19.28
2018-08-13T02:41:29.913Z,19.23
2018-08-13T02:41:30.509Z,19.29
2018-08-13T02:41:31.108Z,19.28
2018-08-13T02:41:31.709Z,19.25
2018-08-13T02:41:32.309Z,19.25
2018-08-13T02:42:25.782Z,19.29
2018-08-13T02:42:26.353Z,19.18
2018-08-13T02:42:26.953Z,19.18
2018-08-13T02:42:27.563Z,19.28
2018-08-13T02:42:28.152Z,19.24
2018-08-13T02:42:28.752Z,19.21
2018-08-13T02:42:29.353Z,19.28
2018-08-13T02:42:29.951Z,19.18
2018-08-13T02:43:23.427Z,19.28
2018-08-13T02:43:24.000Z,19.20
2018-08-13T02:43:24.599Z,19.24
2018-08-13T02:43:25.203Z,19.28
2018-08-13T02:43:25.804Z,19.24
2018-08-13T02:43:26.401Z,19.20
2018-08-13T02:43:27.000Z,19.24
2018-08-13T02:43:27.601Z,19.18
2018-08-13T02:44:22.067Z,19.23
2018-08-13T02:44:22.651Z,19.25
2018-08-13T02:44:23.240Z,19.21
2018-08-13T02:44:23.840Z,19.24
2018-08-13T02:44:24.440Z,19.29
2018-08-13T02:44:25.050Z,19.33
2018-08-13T02:44:25.641Z,19.23
2018-08-13T02:44:26.238Z,19.25
2018-08-13T02:45:20.704Z,19.25
2018-08-13T02:45:21.280Z,19.23
2018-08-13T02:45:21.882Z,19.28
2018-08-13T02:45:22.479Z,19.33
2018-08-13T02:45:23.077Z,19.28
2018-08-13T02:45:23.677Z,19.29
2018-08-13T02:45:24.277Z,19.24
2018-08-13T02:45:24.883Z,19.25
2018-08-13T02:46:19.341Z,19.25
2018-08-13T02:46:19.915Z,19.25
2018-08-13T02:46:20.515Z,19.18
2018-08-13T02:46:21.115Z,19.29
2018-08-13T02:46:21.715Z,19.25
2018-08-13T02:46:22.315Z,19.24
2018-08-13T02:46:22.914Z,19.24
2018-08-13T02:46:23.516Z,19.24
2018-08-13T02:47:16.990Z,19.31
2018-08-13T02:47:17.562Z,19.29
2018-08-13T02:47:18.163Z,19.31
2018-08-13T02:47:18.762Z,19.31
2018-08-13T02:47:19.363Z,19.18
2018-08-13T02:47:19.966Z,19.20
2018-08-13T02:47:20.562Z,19.32
2018-08-13T02:47:21.165Z,19.29
2018-08-13T02:48:14.640Z,19.28
2018-08-13T02:48:15.212Z,19.21
2018-08-13T02:48:15.811Z,19.31
2018-08-13T02:48:16.412Z,19.31
2018-08-13T02:48:17.014Z,19.20
2018-08-13T02:48:17.609Z,19.29
2018-08-13T02:48:18.207Z,19.35
2018-08-13T02:48:18.812Z,19.28
2018-08-13T02:49:12.285Z,19.24
2018-08-13T02:49:12.857Z,19.18
2018-08-13T02:49:13.457Z,19.21
2018-08-13T02:49:14.057Z,19.18
2018-08-13T02:49:14.657Z,19.25
2018-08-13T02:49:15.257Z,19.25
2018-08-13T02:49:15.857Z,19.31
2018-08-13T02:49:16.461Z,19.31
2018-08-13T02:50:10.921Z,19.29
2018-08-13T02:50:11.495Z,19.21
2018-08-13T02:50:12.094Z,19.25
2018-08-13T02:50:12.695Z,19.33
2018-08-13T02:50:13.294Z,19.25
2018-08-13T02:50:13.894Z,19.24
2018-08-13T02:50:14.493Z,19.35
2018-08-13T02:50:15.095Z,19.21
2018-08-13T02:51:09.559Z,19.21
2018-08-13T02:51:10.131Z,19.28
2018-08-13T02:51:10.742Z,19.28
2018-08-13T02:51:11.331Z,19.21
2018-08-13T02:51:11.932Z,19.25
2018-08-13T02:51:12.532Z,19.24
2018-08-13T02:51:13.133Z,19.24
2018-08-13T02:51:13.736Z,19.33
2018-08-13T02:52:08.198Z,19.24
2018-08-13T02:52:08.769Z,19.25
2018-08-13T02:52:09.369Z,19.25
2018-08-13T02:52:09.969Z,19.24
2018-08-13T02:52:10.569Z,19.24
2018-08-13T02:52:11.169Z,19.33
2018-08-13T02:52:11.770Z,19.25
2018-08-13T02:52:12.369Z,19.18
2018-08-13T02:53:06.833Z,19.32
2018-08-13T02:53:07.409Z,19.21
2018-08-13T02:53:08.007Z,19.32
2018-08-13T02:53:08.608Z,19.33
2018-08-13T02:53:09.209Z,19.33
2018-08-13T02:53:09.808Z,19.32
2018-08-13T02:53:10.409Z,19.21
2018-08-13T02:53:11.008Z,19.20
2018-08-13T02:54:04.482Z,19.21
2018-08-13T02:54:05.053Z,19.32
2018-08-13T02:54:05.651Z,19.24
2018-08-13T02:54:06.252Z,19.33
2018-08-13T02:54:06.852Z,19.25
2018-08-13T02:54:07.452Z,19.28
2018-08-13T02:54:08.051Z,19.31
2018-08-13T02:54:08.651Z,19.20
2018-08-13T02:55:02.124Z,19.18
2018-08-13T02:55:02.699Z,19.24
2018-08-13T02:55:03.297Z,19.31
2018-08-13T02:55:03.897Z,19.33
2018-08-13T02:55:04.496Z,19.21
2018-08-13T02:55:05.096Z,19.24
2018-08-13T02:55:05.696Z,19.36
2018-08-13T02:55:06.296Z,19.29
2018-08-13T02:55:59.770Z,19.28
2018-08-13T02:56:00.343Z,19.20
2018-08-13T02:56:00.944Z,19.24
2018-08-13T02:56:01.544Z,19.23
2018-08-13T02:56:02.143Z,19.24
2018-08-13T02:56:02.748Z,19.31
2018-08-13T02:56:03.341Z,19.35
2018-08-13T02:56:03.942Z,19.23
2018-08-13T02:56:58.411Z,19.21
2018-08-13T02:56:58.981Z,19.29
2018-08-13T02:56:59.582Z,19.24
2018-08-13T02:57:00.183Z,19.28
2018-08-13T02:57:00.788Z,19.24
2018-08-13T02:57:01.382Z,19.24
2018-08-13T02:57:01.981Z,19.18
2018-08-13T02:57:02.582Z,19.21
2018-08-13T02:57:57.075Z,19.24
2018-08-13T02:57:57.664Z,19.24
2018-08-13T02:57:58.230Z,19.24
2018-08-13T02:57:58.830Z,19.24
2018-08-13T02:57:59.513Z,19.18
2018-08-13T02:58:00.027Z,19.32
2018-08-13T02:58:00.626Z,19.24
2018-08-13T02:58:01.279Z,19.24
2018-08-13T02:58:54.697Z,19.21
2018-08-13T02:58:55.268Z,19.24
2018-08-13T02:58:55.868Z,19.25
2018-08-13T02:58:56.468Z,19.21
2018-08-13T02:58:57.072Z,19.24
2018-08-13T02:58:57.669Z,19.31
2018-08-13T02:58:58.269Z,19.28
2018-08-13T02:58:58.875Z,19.36
2018-08-13T02:59:53.336Z,19.28
2018-08-13T02:59:53.910Z,19.32
2018-08-13T02:59:54.507Z,19.24
2018-08-13T02:59:55.111Z,19.24
2018-08-13T02:59:55.705Z,19.24
2018-08-13T02:59:56.306Z,19.24
2018-08-13T02:59:56.907Z,19.25
2018-08-13T02:59:57.535Z,19.32
2018-08-13T03:00:50.986Z,19.28
2018-08-13T03:00:51.560Z,19.21
2018-08-13T03:00:52.159Z,19.32
2018-08-13T03:00:52.760Z,19.21
2018-08-13T03:00:53.366Z,19.21
2018-08-13T03:00:53.960Z,19.35
2018-08-13T03:00:54.557Z,19.33
2018-08-13T03:00:55.157Z,19.35
2018-08-13T03:01:48.633Z,19.25
2018-08-13T03:01:49.210Z,19.31
2018-08-13T03:01:49.806Z,19.18
2018-08-13T03:01:50.408Z,19.24
2018-08-13T03:01:51.010Z,19.33
2018-08-13T03:01:51.607Z,19.24
2018-08-13T03:01:52.208Z,19.28
2018-08-13T03:01:52.809Z,19.28
2018-08-13T03:02:46.283Z,19.18
2018-08-13T03:02:46.855Z,19.18
2018-08-13T03:02:47.460Z,19.24
2018-08-13T03:02:48.054Z,19.28
2018-08-13T03:02:48.655Z,19.28
2018-08-13T03:02:49.254Z,19.20